East Vestal, New York
Current Conditions -  °F | °C
As of 4:10 AM on Monday 24 Nov 2014 (Local Time) from KBGM Reporting Station
Moderate Rain Moderate Rain  
Wind Chill: 42°   Ceiling: 400
Heat Index: 49°   Visibility: 3mi
Dew Point: 48°   Wind: 20mph
Humidity: 97%   Direction: 140°SE
Pressure: 29.54"   Gusts: 30mph
Location:  42.0523°N, 75.9029°W
Report Text: KBGM 240910Z AUTO 14017G26KT 3SM RA BR OVC004 09/09 A2954 RMK AO2 PK WND 14026/0907 P0005 T00940089
Loading
Personal Weather Stations






























Interactive Weather Map New forecast layout! Learn more

10-Day Weather Forecast

Advertisements
Track Severe Weather on mobile